Terminal Aerodrome Forecast
Issued by NWS

Home | Current Version | Previous Version | Text Only | Print | Product List | Glossary On
Versions: 1 2 3 4 5 6 7 8 9 10 11 12 13 14 15 16 17 18 19 20 21 22 23 24 25 26 27 28 29 30 31 32 33
000
FTUS45 KPSR 191445 AAB
TAFPHX
TAF AMD
KPHX 191445Z 1915/2018 19010KT P6SM SCT050 BKN070
     FM191700 24020G30KT P6SM SCT060 BKN080
     FM200500 25012KT P6SM SCT070
     FM201000 23004KT P6SM FEW080=

USA.gov is the U.S. government's official web portal to all federal, state and local government web resources and services.